PAL434 RPLL-RPVM
Flight info
| Callsign | PAL434 |
|---|---|
| Flight time | 0h 45m |
| Altitude | 29000 |
| Route | IPATA2R IPATA W25 BATAY BATAY3P |
| Aircraft | A21N/M-SDE2E3FGHIRWXY/LB1 |
Departure
| Time | 2026-05-07 07:42 |
|---|---|
| Airport | Ninoy Aquino International Airport (RPLL) |
Arrival
| Time | 2026-05-07 08:28 |
|---|---|
| Airport | Mactan Cebu International Airport (RPVM) |
| Time | Latitude | Longitude | Altitude | Speed | Heading |
|---|---|---|---|---|---|
| 2026-05-07 07:04 | 14.50897 | 121.01363 | 81 ft | 0 kts | 329° |
| 2026-05-07 07:20 | 14.50888 | 121.01368 | 81 ft | 2 kts | 329° |
| 2026-05-07 07:20 | 14.50878 | 121.01375 | 81 ft | 2 kts | 329° |
| 2026-05-07 07:20 | 14.50871 | 121.01379 | 81 ft | 2 kts | 329° |
| 2026-05-07 07:20 | 14.50858 | 121.01387 | 81 ft | 2 kts | 329° |
| 2026-05-07 07:21 | 14.50847 | 121.01394 | 81 ft | 0 kts | 329° |
| 2026-05-07 07:21 | 14.50837 | 121.01401 | 81 ft | 2 kts | 314° |
| 2026-05-07 07:21 | 14.50828 | 121.01413 | 81 ft | 2 kts | 296° |
| 2026-05-07 07:21 | 14.50823 | 121.01427 | 81 ft | 2 kts | 276° |
| 2026-05-07 07:22 | 14.50824 | 121.01443 | 81 ft | 2 kts | 258° |
| 2026-05-07 07:22 | 14.50828 | 121.01456 | 81 ft | 0 kts | 242° |
| 2026-05-07 07:22 | 14.50831 | 121.01461 | 81 ft | 0 kts | 239° |
| 2026-05-07 07:22 | 14.50831 | 121.01462 | 81 ft | 0 kts | 239° |
| 2026-05-07 07:27 | 14.50829 | 121.01457 | 81 ft | 3 kts | 239° |
| 2026-05-07 07:27 | 14.50813 | 121.01430 | 81 ft | 4 kts | 239° |
| 2026-05-07 07:28 | 14.50787 | 121.01385 | 81 ft | 10 kts | 242° |
| 2026-05-07 07:28 | 14.50740 | 121.01311 | 81 ft | 12 kts | 204° |
| 2026-05-07 07:28 | 14.50673 | 121.01318 | 81 ft | 8 kts | 207° |
| 2026-05-07 07:28 | 14.50638 | 121.01263 | 81 ft | 9 kts | 240° |
| 2026-05-07 07:29 | 14.50603 | 121.01199 | 81 ft | 10 kts | 241° |
| 2026-05-07 07:29 | 14.50564 | 121.01128 | 81 ft | 11 kts | 240° |
| 2026-05-07 07:29 | 14.50522 | 121.01054 | 81 ft | 12 kts | 239° |
| 2026-05-07 07:29 | 14.50478 | 121.00977 | 81 ft | 12 kts | 238° |
| 2026-05-07 07:30 | 14.50431 | 121.00899 | 81 ft | 13 kts | 243° |
| 2026-05-07 07:30 | 14.50389 | 121.00816 | 81 ft | 13 kts | 242° |
| 2026-05-07 07:30 | 14.50343 | 121.00733 | 81 ft | 13 kts | 240° |
| 2026-05-07 07:30 | 14.50297 | 121.00649 | 81 ft | 13 kts | 241° |
| 2026-05-07 07:31 | 14.50251 | 121.00565 | 81 ft | 12 kts | 239° |
| 2026-05-07 07:31 | 14.50223 | 121.00516 | 81 ft | 7 kts | 239° |
| 2026-05-07 07:31 | 14.50194 | 121.00465 | 81 ft | 8 kts | 239° |
| 2026-05-07 07:31 | 14.50160 | 121.00403 | 81 ft | 11 kts | 240° |
| 2026-05-07 07:32 | 14.50117 | 121.00324 | 81 ft | 13 kts | 240° |
| 2026-05-07 07:32 | 14.50065 | 121.00233 | 81 ft | 15 kts | 239° |
| 2026-05-07 07:32 | 14.50009 | 121.00130 | 81 ft | 17 kts | 240° |
| 2026-05-07 07:32 | 14.49969 | 121.00062 | 81 ft | 0 kts | 240° |
| 2026-05-07 07:33 | 14.49965 | 121.00055 | 81 ft | 3 kts | 240° |
| 2026-05-07 07:33 | 14.49945 | 121.00015 | 82 ft | 0 kts | 243° |
| 2026-05-07 07:34 | 14.49940 | 121.00005 | 82 ft | 2 kts | 242° |
| 2026-05-07 07:35 | 14.49926 | 120.99983 | 82 ft | 5 kts | 231° |
| 2026-05-07 07:35 | 14.49887 | 120.99963 | 82 ft | 5 kts | 176° |
| 2026-05-07 07:35 | 14.49882 | 120.99964 | 82 ft | 0 kts | 165° |
| 2026-05-07 07:39 | 14.49866 | 120.99970 | 82 ft | 4 kts | 156° |
| 2026-05-07 07:39 | 14.49837 | 120.99985 | 82 ft | 4 kts | 150° |
| 2026-05-07 07:40 | 14.49806 | 121.00005 | 82 ft | 5 kts | 139° |
| 2026-05-07 07:40 | 14.49801 | 121.00040 | 82 ft | 5 kts | 66° |
| 2026-05-07 07:40 | 14.49821 | 121.00078 | 82 ft | 6 kts | 61° |
| 2026-05-07 07:40 | 14.49844 | 121.00120 | 82 ft | 6 kts | 61° |
| 2026-05-07 07:41 | 14.49864 | 121.00156 | 82 ft | 2 kts | 60° |
| 2026-05-07 07:41 | 14.49873 | 121.00173 | 82 ft | 3 kts | 60° |
| 2026-05-07 07:41 | 14.49960 | 121.00330 | 81 ft | 59 kts | 60° |
| 2026-05-07 07:41 | 14.50285 | 121.00916 | 82 ft | 124 kts | 60° |
| 2026-05-07 07:42 | 14.50811 | 121.01846 | 113 ft | 170 kts | 60° |
| 2026-05-07 07:42 | 14.51411 | 121.02907 | 580 ft | 175 kts | 64° |
| 2026-05-07 07:42 | 14.52004 | 121.04003 | 1233 ft | 176 kts | 62° |
| 2026-05-07 07:42 | 14.52587 | 121.05069 | 1920 ft | 167 kts | 62° |
| 2026-05-07 07:43 | 14.53175 | 121.06135 | 2205 ft | 177 kts | 62° |
| 2026-05-07 07:43 | 14.53804 | 121.07270 | 2442 ft | 190 kts | 61° |
| 2026-05-07 07:43 | 14.54487 | 121.08503 | 2692 ft | 203 kts | 61° |
| 2026-05-07 07:43 | 14.55215 | 121.09815 | 2924 ft | 219 kts | 61° |
| 2026-05-07 07:44 | 14.56005 | 121.11240 | 3146 ft | 237 kts | 61° |
| 2026-05-07 07:44 | 14.56799 | 121.12789 | 3436 ft | 253 kts | 68° |
| 2026-05-07 07:44 | 14.57325 | 121.14568 | 3901 ft | 262 kts | 79° |
| 2026-05-07 07:44 | 14.57581 | 121.16428 | 4531 ft | 265 kts | 82° |
| 2026-05-07 07:45 | 14.57793 | 121.18301 | 5167 ft | 267 kts | 83° |
| 2026-05-07 07:45 | 14.58005 | 121.20219 | 5811 ft | 270 kts | 83° |
| 2026-05-07 07:45 | 14.58221 | 121.22144 | 6492 ft | 273 kts | 83° |
| 2026-05-07 07:45 | 14.58424 | 121.24075 | 7148 ft | 276 kts | 86° |
| 2026-05-07 07:46 | 14.58111 | 121.26023 | 7750 ft | 281 kts | 112° |
| 2026-05-07 07:46 | 14.56957 | 121.27643 | 8388 ft | 286 kts | 137° |
| 2026-05-07 07:46 | 14.55342 | 121.28888 | 9045 ft | 289 kts | 142° |
| 2026-05-07 07:46 | 14.53707 | 121.30107 | 9617 ft | 292 kts | 142° |
| 2026-05-07 07:47 | 14.52074 | 121.31335 | 10217 ft | 295 kts | 141° |
| 2026-05-07 07:47 | 14.50395 | 121.32610 | 10573 ft | 307 kts | 141° |
| 2026-05-07 07:47 | 14.48626 | 121.33960 | 10835 ft | 321 kts | 141° |
| 2026-05-07 07:47 | 14.46816 | 121.35345 | 11259 ft | 328 kts | 141° |
| 2026-05-07 07:48 | 14.44969 | 121.36757 | 11813 ft | 331 kts | 141° |
| 2026-05-07 07:48 | 14.43109 | 121.38180 | 12348 ft | 334 kts | 141° |
| 2026-05-07 07:48 | 14.41219 | 121.39628 | 12849 ft | 336 kts | 141° |
| 2026-05-07 07:48 | 14.39329 | 121.41077 | 13354 ft | 339 kts | 142° |
| 2026-05-07 07:49 | 14.37442 | 121.42522 | 13853 ft | 342 kts | 141° |
| 2026-05-07 07:49 | 14.35504 | 121.44006 | 14358 ft | 344 kts | 141° |
| 2026-05-07 07:49 | 14.33595 | 121.45470 | 14823 ft | 347 kts | 141° |
| 2026-05-07 07:49 | 14.31643 | 121.46965 | 15275 ft | 349 kts | 142° |
| 2026-05-07 07:50 | 14.29676 | 121.48472 | 15731 ft | 352 kts | 141° |
| 2026-05-07 07:50 | 14.27714 | 121.49972 | 16205 ft | 355 kts | 142° |
| 2026-05-07 07:50 | 14.25708 | 121.51503 | 16613 ft | 358 kts | 142° |
| 2026-05-07 07:50 | 14.23682 | 121.53044 | 17030 ft | 360 kts | 142° |
| 2026-05-07 07:51 | 14.21671 | 121.54575 | 17456 ft | 362 kts | 142° |
| 2026-05-07 07:51 | 14.19631 | 121.56130 | 17869 ft | 365 kts | 142° |
| 2026-05-07 07:51 | 14.17583 | 121.57690 | 18271 ft | 367 kts | 142° |
| 2026-05-07 07:51 | 14.15523 | 121.59261 | 18659 ft | 369 kts | 142° |
| 2026-05-07 07:52 | 14.13473 | 121.60822 | 19032 ft | 371 kts | 142° |
| 2026-05-07 07:52 | 14.11381 | 121.62415 | 19405 ft | 374 kts | 142° |
| 2026-05-07 07:52 | 14.09283 | 121.64012 | 19785 ft | 376 kts | 142° |
| 2026-05-07 07:52 | 14.07165 | 121.65624 | 20145 ft | 378 kts | 142° |
| 2026-05-07 07:53 | 14.05058 | 121.67229 | 20516 ft | 380 kts | 142° |
| 2026-05-07 07:53 | 14.02904 | 121.68871 | 20864 ft | 382 kts | 142° |
| 2026-05-07 07:53 | 14.00764 | 121.70504 | 21195 ft | 385 kts | 142° |
| 2026-05-07 07:53 | 13.98603 | 121.72154 | 21528 ft | 387 kts | 142° |
| 2026-05-07 07:54 | 13.96450 | 121.73796 | 21851 ft | 389 kts | 142° |
| 2026-05-07 07:54 | 13.94255 | 121.75471 | 22179 ft | 391 kts | 142° |
| 2026-05-07 07:54 | 13.92080 | 121.77131 | 22504 ft | 393 kts | 142° |
| 2026-05-07 07:54 | 13.89843 | 121.78835 | 22834 ft | 396 kts | 142° |
| 2026-05-07 07:55 | 13.87625 | 121.80526 | 23156 ft | 398 kts | 142° |
| 2026-05-07 07:55 | 13.85399 | 121.82216 | 23472 ft | 400 kts | 142° |
| 2026-05-07 07:55 | 13.83137 | 121.83920 | 23788 ft | 402 kts | 142° |
| 2026-05-07 07:55 | 13.80864 | 121.85629 | 24099 ft | 404 kts | 142° |
| 2026-05-07 07:56 | 13.78591 | 121.87341 | 24407 ft | 406 kts | 142° |
| 2026-05-07 07:56 | 13.76321 | 121.89050 | 24710 ft | 408 kts | 143° |
| 2026-05-07 07:56 | 13.74003 | 121.90797 | 25014 ft | 410 kts | 143° |
| 2026-05-07 07:56 | 13.71692 | 121.92539 | 25244 ft | 414 kts | 143° |
| 2026-05-07 07:57 | 13.69353 | 121.94302 | 25412 ft | 420 kts | 143° |
| 2026-05-07 07:57 | 13.66989 | 121.96084 | 25668 ft | 422 kts | 143° |
| 2026-05-07 07:57 | 13.64624 | 121.97867 | 25963 ft | 424 kts | 143° |
| 2026-05-07 07:57 | 13.62221 | 121.99676 | 26253 ft | 425 kts | 143° |
| 2026-05-07 07:58 | 13.59854 | 122.01460 | 26524 ft | 427 kts | 143° |
| 2026-05-07 07:58 | 13.57439 | 122.03280 | 26795 ft | 429 kts | 143° |
| 2026-05-07 07:58 | 13.55011 | 122.05108 | 27062 ft | 430 kts | 143° |
| 2026-05-07 07:58 | 13.52600 | 122.06922 | 27315 ft | 432 kts | 143° |
| 2026-05-07 07:59 | 13.50173 | 122.08749 | 27578 ft | 434 kts | 143° |
| 2026-05-07 07:59 | 13.47730 | 122.10586 | 27832 ft | 436 kts | 143° |
| 2026-05-07 07:59 | 13.45250 | 122.12452 | 28092 ft | 438 kts | 143° |
| 2026-05-07 07:59 | 13.42813 | 122.14284 | 28355 ft | 439 kts | 143° |
| 2026-05-07 08:00 | 13.40313 | 122.16163 | 28607 ft | 441 kts | 143° |
| 2026-05-07 08:00 | 13.37830 | 122.18029 | 28805 ft | 443 kts | 143° |
| 2026-05-07 08:00 | 13.35337 | 122.19901 | 28830 ft | 442 kts | 143° |
| 2026-05-07 08:01 | 13.30359 | 122.23642 | 28825 ft | 442 kts | 144° |
| 2026-05-07 08:01 | 13.25395 | 122.27368 | 28822 ft | 442 kts | 144° |
| 2026-05-07 08:02 | 13.20419 | 122.31102 | 28814 ft | 442 kts | 144° |
| 2026-05-07 08:02 | 13.15433 | 122.34840 | 28812 ft | 441 kts | 144° |
| 2026-05-07 08:03 | 13.10472 | 122.38558 | 28814 ft | 442 kts | 144° |
| 2026-05-07 08:03 | 13.05501 | 122.42283 | 28811 ft | 442 kts | 144° |
| 2026-05-07 08:04 | 13.00538 | 122.46001 | 28819 ft | 442 kts | 144° |
| 2026-05-07 08:04 | 12.95578 | 122.49715 | 28817 ft | 442 kts | 144° |
| 2026-05-07 08:05 | 12.90615 | 122.53426 | 28819 ft | 441 kts | 144° |
| 2026-05-07 08:05 | 12.85639 | 122.57145 | 28818 ft | 441 kts | 144° |
| 2026-05-07 08:06 | 12.72926 | 122.66646 | 28833 ft | 442 kts | 144° |
| 2026-05-07 08:06 | 12.28361 | 122.99863 | 28790 ft | 443 kts | 144° |
| 2026-05-07 08:07 | 12.02200 | 123.19228 | 28796 ft | 443 kts | 144° |
| 2026-05-07 08:07 | 11.63659 | 123.47796 | 28793 ft | 444 kts | 144° |
| 2026-05-07 08:08 | 11.51926 | 123.56448 | 28810 ft | 445 kts | 144° |
| 2026-05-07 08:08 | 11.49411 | 123.58305 | 28491 ft | 445 kts | 144° |
| 2026-05-07 08:08 | 11.46934 | 123.60132 | 27962 ft | 443 kts | 144° |
| 2026-05-07 08:08 | 11.44418 | 123.61987 | 27342 ft | 442 kts | 143° |
| 2026-05-07 08:09 | 11.41932 | 123.63818 | 26745 ft | 440 kts | 143° |
| 2026-05-07 08:09 | 11.39456 | 123.65644 | 26218 ft | 437 kts | 143° |
| 2026-05-07 08:09 | 11.36994 | 123.67460 | 25710 ft | 433 kts | 143° |
| 2026-05-07 08:09 | 11.34575 | 123.69244 | 25219 ft | 429 kts | 143° |
| 2026-05-07 08:10 | 11.32161 | 123.71024 | 24734 ft | 425 kts | 142° |
| 2026-05-07 08:10 | 11.29799 | 123.72767 | 24235 ft | 421 kts | 142° |
| 2026-05-07 08:10 | 11.27423 | 123.74519 | 23743 ft | 417 kts | 142° |
| 2026-05-07 08:10 | 11.25103 | 123.76230 | 23264 ft | 413 kts | 142° |
| 2026-05-07 08:11 | 11.22786 | 123.77939 | 22779 ft | 410 kts | 142° |
| 2026-05-07 08:11 | 11.20466 | 123.79647 | 22289 ft | 406 kts | 141° |
| 2026-05-07 08:11 | 11.18181 | 123.81330 | 21801 ft | 403 kts | 141° |
| 2026-05-07 08:11 | 11.15900 | 123.82947 | 21295 ft | 402 kts | 147° |
| 2026-05-07 08:12 | 11.13261 | 123.83896 | 20763 ft | 407 kts | 170° |
| 2026-05-07 08:12 | 11.10408 | 123.83718 | 20278 ft | 409 kts | 191° |
| 2026-05-07 08:12 | 11.07684 | 123.82921 | 19814 ft | 407 kts | 194° |
| 2026-05-07 08:12 | 11.04975 | 123.82112 | 19343 ft | 404 kts | 194° |
| 2026-05-07 08:13 | 11.02254 | 123.81319 | 18866 ft | 402 kts | 193° |
| 2026-05-07 08:13 | 10.99564 | 123.80551 | 18394 ft | 399 kts | 193° |
| 2026-05-07 08:13 | 10.96918 | 123.79804 | 17928 ft | 397 kts | 193° |
| 2026-05-07 08:13 | 10.94266 | 123.79060 | 17452 ft | 394 kts | 193° |
| 2026-05-07 08:14 | 10.91625 | 123.78322 | 16982 ft | 392 kts | 193° |
| 2026-05-07 08:14 | 10.88975 | 123.77582 | 16507 ft | 390 kts | 193° |
| 2026-05-07 08:14 | 10.86375 | 123.76856 | 16047 ft | 387 kts | 193° |
| 2026-05-07 08:14 | 10.83767 | 123.76129 | 15591 ft | 385 kts | 193° |
| 2026-05-07 08:15 | 10.81212 | 123.75415 | 15148 ft | 382 kts | 193° |
| 2026-05-07 08:15 | 10.78630 | 123.74695 | 14699 ft | 379 kts | 193° |
| 2026-05-07 08:15 | 10.76101 | 123.73988 | 14254 ft | 376 kts | 193° |
| 2026-05-07 08:15 | 10.73605 | 123.73292 | 13818 ft | 373 kts | 193° |
| 2026-05-07 08:16 | 10.71088 | 123.72591 | 13375 ft | 370 kts | 192° |
| 2026-05-07 08:16 | 10.68641 | 123.71910 | 12946 ft | 367 kts | 193° |
| 2026-05-07 08:16 | 10.66155 | 123.71218 | 12505 ft | 364 kts | 192° |
| 2026-05-07 08:16 | 10.63737 | 123.70543 | 12067 ft | 361 kts | 192° |
| 2026-05-07 08:17 | 10.61310 | 123.69868 | 11629 ft | 359 kts | 192° |
| 2026-05-07 08:17 | 10.58904 | 123.69197 | 11217 ft | 355 kts | 192° |
| 2026-05-07 08:17 | 10.56528 | 123.68536 | 10804 ft | 352 kts | 192° |
| 2026-05-07 08:17 | 10.54171 | 123.67879 | 10384 ft | 350 kts | 192° |
| 2026-05-07 08:18 | 10.51813 | 123.67223 | 10101 ft | 341 kts | 192° |
| 2026-05-07 08:18 | 10.49572 | 123.66596 | 9977 ft | 328 kts | 192° |
| 2026-05-07 08:18 | 10.47413 | 123.65994 | 9843 ft | 316 kts | 192° |
| 2026-05-07 08:18 | 10.45289 | 123.65402 | 9564 ft | 311 kts | 192° |
| 2026-05-07 08:19 | 10.43223 | 123.64829 | 9190 ft | 309 kts | 192° |
| 2026-05-07 08:19 | 10.41143 | 123.64251 | 8822 ft | 306 kts | 192° |
| 2026-05-07 08:19 | 10.39080 | 123.63678 | 8450 ft | 304 kts | 192° |
| 2026-05-07 08:19 | 10.37043 | 123.63113 | 8092 ft | 302 kts | 191° |
| 2026-05-07 08:20 | 10.34990 | 123.62814 | 7681 ft | 293 kts | 169° |
| 2026-05-07 08:20 | 10.33151 | 123.63530 | 7304 ft | 279 kts | 137° |
| 2026-05-07 08:20 | 10.31837 | 123.64919 | 6982 ft | 272 kts | 128° |
| 2026-05-07 08:20 | 10.30568 | 123.66326 | 6642 ft | 270 kts | 129° |
| 2026-05-07 08:21 | 10.29265 | 123.67706 | 6298 ft | 269 kts | 130° |
| 2026-05-07 08:21 | 10.27960 | 123.69061 | 6023 ft | 264 kts | 131° |
| 2026-05-07 08:21 | 10.26684 | 123.70367 | 5766 ft | 259 kts | 131° |
| 2026-05-07 08:21 | 10.25430 | 123.71644 | 5488 ft | 254 kts | 131° |
| 2026-05-07 08:22 | 10.24192 | 123.72906 | 5217 ft | 250 kts | 131° |
| 2026-05-07 08:22 | 10.22959 | 123.74159 | 4948 ft | 246 kts | 131° |
| 2026-05-07 08:22 | 10.21740 | 123.75401 | 4683 ft | 242 kts | 131° |
| 2026-05-07 08:22 | 10.18249 | 123.78950 | 3960 ft | 237 kts | 131° |
| 2026-05-07 08:23 | 10.17477 | 123.79733 | 3804 ft | 234 kts | 131° |
| 2026-05-07 08:23 | 10.16144 | 123.81397 | 3484 ft | 222 kts | 105° |
| 2026-05-07 08:23 | 10.16117 | 123.82900 | 3239 ft | 212 kts | 71° |
| 2026-05-07 08:23 | 10.16895 | 123.84134 | 3044 ft | 210 kts | 45° |
| 2026-05-07 08:24 | 10.17975 | 123.85157 | 2972 ft | 210 kts | 45° |
| 2026-05-07 08:24 | 10.19025 | 123.86186 | 2963 ft | 206 kts | 46° |
| 2026-05-07 08:24 | 10.20027 | 123.87175 | 2859 ft | 197 kts | 46° |
| 2026-05-07 08:24 | 10.21005 | 123.88152 | 2625 ft | 193 kts | 46° |
| 2026-05-07 08:25 | 10.21950 | 123.89101 | 2395 ft | 189 kts | 46° |
| 2026-05-07 08:25 | 10.22889 | 123.90047 | 2163 ft | 186 kts | 46° |
| 2026-05-07 08:25 | 10.23802 | 123.90964 | 1850 ft | 187 kts | 46° |
| 2026-05-07 08:25 | 10.24727 | 123.91894 | 1593 ft | 181 kts | 46° |
| 2026-05-07 08:26 | 10.26399 | 123.93573 | 919 ft | 160 kts | 45° |
| 2026-05-07 08:26 | 10.27150 | 123.94327 | 700 ft | 141 kts | 45° |
| 2026-05-07 08:26 | 10.27836 | 123.95012 | 544 ft | 135 kts | 44° |
| 2026-05-07 08:27 | 10.28522 | 123.95679 | 387 ft | 135 kts | 43° |
| 2026-05-07 08:27 | 10.29179 | 123.96352 | 215 ft | 135 kts | 43° |
| 2026-05-07 08:27 | 10.29841 | 123.97027 | 52 ft | 134 kts | 40° |
| 2026-05-07 08:27 | 10.30439 | 123.97623 | 37 ft | 97 kts | 45° |
| 2026-05-07 08:28 | 10.30812 | 123.97997 | 37 ft | 61 kts | 44° |
| 2026-05-07 08:28 | 10.31088 | 123.98261 | 37 ft | 39 kts | 33° |
| 2026-05-07 08:28 | 10.31297 | 123.98350 | 37 ft | 22 kts | 14° |
| 2026-05-07 08:28 | 10.31424 | 123.98289 | 37 ft | 20 kts | 314° |
| 2026-05-07 08:29 | 10.31512 | 123.98200 | 37 ft | 12 kts | 314° |
| 2026-05-07 08:29 | 10.31556 | 123.98154 | 37 ft | 9 kts | 313° |
| 2026-05-07 08:29 | 10.31557 | 123.98099 | 37 ft | 9 kts | 225° |
| 2026-05-07 08:29 | 10.31551 | 123.98071 | 37 ft | 4 kts | 308° |
| 2026-05-07 08:30 | 10.31575 | 123.98045 | 37 ft | 5 kts | 314° |
| 2026-05-07 08:30 | 10.31597 | 123.98023 | 37 ft | 2 kts | 315° |
| 2026-05-07 08:30 | 10.31598 | 123.98022 | 37 ft | 0 kts | 315° |